Terminal Aerodrome Forecast
Issued by NWS

Current Version | Previous Version | Graphics & Text | Print | Product List | Glossary On
Versions: 1 2 3 4 5 6 7 8 9 10 11 12 13 14 15 16 17 18 19 20 21 22 23 24 25 26 27
000
FTUS41 KILN 192338
TAFLUK
TAF
KLUK 192338Z 2000/2024 23007KT P6SM FEW050 BKN150
     FM200200 16005KT P6SM BKN170
     FM200600 VRB03KT 5SM BR BKN040
     FM201100 07005KT 2SM BR SCT008 BKN012
     FM201300 14005KT P6SM VCSH BKN035
     FM201900 18005KT P6SM VCTS SCT050CB BKN200=

USA.gov is the U.S. government's official web portal to all federal, state and local government web resources and services.